Time;durP1;ratioP1;P1;durP2;ratioP2;P2;SDS_P1;SDS_P2;PMS_P1;PMS_P2;Temp;Humidity;BMP_temperature;BMP_pressure;BME280_temperature;BME280_humidity;BME280_pressure;Samples;Min_cycle;Max_cycle;Signal;HPM_P1;HPM_P2
2021/11/03 00:02:09;;;;;;;;;32.75;25.75;;;;;10.89;82.59;99449.25;5058829;28;45309;-61
2021/11/03 00:04:36;;;;;;;;;26.50;25.00;;;;;10.85;83.03;99440.75;5058458;28;45233;-61
2021/11/03 00:07:02;;;;;;;;;34.00;30.50;;;;;10.80;83.04;99434.09;5058512;28;45454;-60
2021/11/03 00:09:28;;;;;;;;;48.50;38.00;;;;;10.84;83.40;99439.09;5060642;28;46639;-60
2021/11/03 00:11:53;;;;;;;;;47.25;37.50;;;;;10.80;83.52;99421.94;5059922;28;45356;-60
2021/11/03 00:14:19;;;;;;;;;52.00;38.00;;;;;10.79;84.06;99427.22;5059144;28;45576;-61
2021/11/03 00:16:44;;;;;;;;;48.25;35.00;;;;;10.79;83.87;99432.41;5058050;28;45375;-60
2021/11/03 00:19:09;;;;;;;;;48.25;34.75;;;;;10.82;84.14;99427.09;5059445;28;46077;-60
2021/11/03 00:21:35;;;;;;;;;27.00;21.25;;;;;10.82;83.55;99427.94;5058442;28;45442;-61
2021/11/03 00:24:00;;;;;;;;;26.50;21.50;;;;;10.79;83.81;99427.22;5050595;28;45589;-61
2021/11/03 00:26:26;;;;;;;;;21.50;17.00;;;;;10.78;83.81;99417.72;5058353;28;45312;-60
2021/11/03 00:28:51;;;;;;;;;20.75;16.00;;;;;10.77;84.33;99418.66;5058423;28;45550;-61
2021/11/03 00:31:17;;;;;;;;;16.50;13.75;;;;;10.74;84.46;99411.84;5058358;28;45465;-61
2021/11/03 00:33:42;;;;;;;;;12.50;12.50;;;;;10.74;84.44;99411.84;5058606;28;45372;-61
2021/11/03 00:36:08;;;;;;;;;15.50;14.00;;;;;10.76;84.43;99411.78;5050666;28;45236;-61
2021/11/03 00:38:33;;;;;;;;;16.00;12.25;;;;;10.75;84.86;99410.94;5052608;28;48405;-61
2021/11/03 00:40:59;;;;;;;;;13.00;13.00;;;;;10.76;84.95;99406.56;5059214;28;45292;-61
2021/11/03 00:43:24;;;;;;;;;14.50;10.00;;;;;10.77;84.69;99408.25;5059566;28;45408;-61
2021/11/03 00:45:50;;;;;;;;;15.75;12.25;;;;;10.78;85.08;99399.53;5059507;28;45446;-61
2021/11/03 00:48:16;;;;;;;;;13.25;11.00;;;;;10.78;85.39;99407.34;5059378;28;45321;-61
2021/11/03 00:50:43;;;;;;;;;13.00;8.25;;;;;10.73;85.06;99401.53;5055745;28;45602;-61
2021/11/03 00:53:08;;;;;;;;;10.25;7.25;;;;;10.68;85.54;99399.16;5054748;28;45383;-61
2021/11/03 00:55:34;;;;;;;;;14.50;7.50;;;;;10.69;84.86;99400.84;5058435;28;45850;-62
2021/11/03 00:57:59;;;;;;;;;10.00;8.00;;;;;10.65;84.66;99400.16;5059146;28;46782;-62
2021/11/03 01:00:25;;;;;;;;;8.75;7.25;;;;;10.56;85.19;99389.38;5058969;28;45326;-62
2021/11/03 01:02:50;;;;;;;;;14.00;9.50;;;;;10.60;85.34;99402.13;5060140;28;45406;-61
2021/11/03 01:05:20;;;;;;;;;8.75;8.00;;;;;10.58;85.75;99398.75;5059278;28;45218;-62
2021/11/03 01:07:46;;;;;;;;;8.75;8.75;;;;;10.53;85.30;99402.50;5059630;28;46169;-61
2021/11/03 01:10:12;;;;;;;;;8.75;8.75;;;;;10.49;86.04;99394.03;5059226;28;45298;-61
2021/11/03 01:12:39;;;;;;;;;9.00;7.75;;;;;10.49;86.63;99394.03;5059384;28;45261;-61
2021/11/03 01:15:08;;;;;;;;;9.25;8.00;;;;;10.48;87.09;99394.94;5059281;28;45589;-61
2021/11/03 01:17:34;;;;;;;;;13.00;8.00;;;;;10.47;86.27;99390.66;5060252;28;47152;-62
2021/11/03 01:19:59;;;;;;;;;9.00;7.00;;;;;10.45;86.58;99392.50;5059143;28;45182;-61
2021/11/03 01:22:25;;;;;;;;;11.50;11.50;;;;;10.44;86.50;99395.19;5057382;28;45385;-62
2021/11/03 01:24:50;;;;;;;;;15.00;9.25;;;;;10.44;87.31;99400.38;5051987;28;45384;-62
2021/11/03 01:27:15;;;;;;;;;8.50;8.50;;;;;10.43;86.91;99393.50;5062548;28;45298;-62
2021/11/03 01:29:41;;;;;;;;;12.00;9.00;;;;;10.46;87.36;99404.56;5063798;28;45326;-62
2021/11/03 01:32:06;;;;;;;;;8.00;8.00;;;;;10.45;87.55;99396.84;5062373;28;45372;-63
2021/11/03 01:34:32;;;;;;;;;14.00;8.25;;;;;10.44;87.83;99405.56;5062425;28;45351;-63
2021/11/03 01:36:57;;;;;;;;;13.25;11.25;;;;;10.43;88.06;99401.28;5052078;28;45334;-63
2021/11/03 01:39:23;;;;;;;;;12.00;9.50;;;;;10.41;87.68;99411.75;5061893;28;45472;-62
2021/11/03 01:41:48;;;;;;;;;8.25;8.25;;;;;10.39;87.87;99413.56;5060847;28;45409;-62
2021/11/03 01:44:16;;;;;;;;;12.50;8.75;;;;;10.38;87.93;99414.47;5062340;28;45366;-63
2021/11/03 01:46:57;;;;;;;;;6.00;4.75;;;;;10.36;88.32;99408.50;5061683;28;47189;-63
2021/11/03 01:49:27;;;;;;;;;8.50;4.50;;;;;10.29;89.21;99422.72;5061301;28;45421;-63
2021/11/03 01:52:01;;;;;;;;;9.25;8.50;;;;;10.27;89.21;99412.41;5060782;28;45283;-62
2021/11/03 01:54:42;;;;;;;;;16.25;10.50;;;;;10.28;88.89;99415.84;5045014;28;45378;-62
2021/11/03 01:57:13;;;;;;;;;8.75;8.75;;;;;10.26;89.10;99417.66;5062073;28;45422;-62
2021/11/03 01:59:43;;;;;;;;;11.00;8.25;;;;;10.26;89.26;99413.31;5060675;28;45762;-61
2021/11/03 02:02:11;;;;;;;;;12.00;8.50;;;;;10.25;90.15;99419.44;5063397;28;45355;-60
2021/11/03 02:04:37;;;;;;;;;9.00;8.25;;;;;10.21;89.95;99410.09;5060358;28;45618;-61
2021/11/03 02:07:08;;;;;;;;;10.75;8.50;;;;;10.16;90.33;99401.63;5061255;28;46277;-60
2021/11/03 02:09:33;;;;;;;;;7.00;5.50;;;;;10.10;89.78;99399.34;5061953;28;45316;-61
2021/11/03 02:11:59;;;;;;;;;10.25;10.25;;;;;10.09;89.74;99405.44;5061849;28;45328;-60
2021/11/03 02:14:24;;;;;;;;;15.75;7.75;;;;;10.08;90.04;99401.16;5060065;28;45552;-61
2021/11/03 02:16:52;;;;;;;;;7.00;6.00;;;;;10.11;90.46;99407.97;5059376;28;46106;-60
2021/11/03 02:19:24;;;;;;;;;8.25;8.25;;;;;10.09;90.51;99408.03;5059306;28;45322;-61
2021/11/03 02:22:27;;;;;;;;;12.25;10.00;;;;;10.10;90.24;99401.94;5059449;28;45678;-60
2021/11/03 02:24:55;;;;;;;;;13.75;13.25;;;;;10.04;91.57;99408.25;5056618;28;46093;-61
2021/11/03 02:27:27;;;;;;;;;11.50;9.25;;;;;10.02;91.03;99411.84;5059603;28;46195;-61
2021/11/03 02:29:53;;;;;;;;;13.00;11.75;;;;;10.00;90.77;99414.47;5060617;28;45827;-61
2021/11/03 02:32:27;;;;;;;;;13.75;10.25;;;;;10.03;92.18;99405.75;5062108;28;45326;-61
2021/11/03 02:34:53;;;;;;;;;12.25;9.25;;;;;9.98;91.15;99415.47;5059114;28;45463;-61
2021/11/03 02:37:27;;;;;;;;;9.00;7.50;;;;;9.93;92.90;99405.31;5048129;28;46236;-61
2021/11/03 02:40:26;;;;;;;;;14.00;9.25;;;;;9.89;91.61;99397.75;5058670;28;45904;-61
2021/11/03 02:42:56;;;;;;;;;15.00;13.75;;;;;9.86;91.63;99397.88;5059354;28;45481;-61
2021/11/03 02:45:31;;;;;;;;;14.00;12.00;;;;;9.84;91.47;99404.91;5058623;28;45573;-61
2021/11/03 02:47:57;;;;;;;;;13.00;12.00;;;;;9.85;91.67;99412.63;5059081;28;45470;-61
2021/11/03 02:50:22;;;;;;;;;12.00;10.00;;;;;9.87;91.97;99405.59;5060413;28;45358;-62
2021/11/03 02:52:48;;;;;;;;;11.00;9.00;;;;;9.83;91.38;99408.41;5060550;28;45497;-62
2021/11/03 02:55:13;;;;;;;;;15.25;12.75;;;;;9.82;91.94;99417.94;5059974;28;45499;-62
2021/11/03 02:57:39;;;;;;;;;13.75;11.00;;;;;9.84;91.44;99412.69;5056119;28;46781;-61
2021/11/03 03:00:09;;;;;;;;;10.50;9.25;;;;;9.83;91.76;99403.22;5061094;28;45326;-61
2021/11/03 03:02:34;;;;;;;;;13.25;11.75;;;;;9.80;91.77;99406.78;5061204;28;45262;-60
2021/11/03 03:05:00;;;;;;;;;10.50;10.50;;;;;9.82;91.85;99412.75;5059372;28;45398;-60
2021/11/03 03:07:26;;;;;;;;;13.50;8.25;;;;;9.80;91.86;99419.75;5060836;28;45369;-60
2021/11/03 03:09:52;;;;;;;;;13.75;10.50;;;;;9.75;91.42;99406.16;5061000;28;45723;-60
2021/11/03 03:12:20;;;;;;;;;13.25;9.25;;;;;9.81;91.90;99424.06;5061234;28;44812;-59
2021/11/03 03:14:48;;;;;;;;;11.75;8.75;;;;;9.81;93.16;99421.44;5057672;28;45505;-59
2021/11/03 03:17:15;;;;;;;;;14.00;9.25;;;;;9.76;92.61;99423.41;5059297;28;46955;-60
2021/11/03 03:19:42;;;;;;;;;9.75;8.75;;;;;9.68;92.85;99422.91;5059064;28;45501;-60
2021/11/03 03:22:10;;;;;;;;;11.50;9.00;;;;;9.64;92.96;99418.78;5060412;28;45311;-59
2021/11/03 03:24:35;;;;;;;;;15.25;9.25;;;;;9.60;93.07;99427.56;5053394;28;45521;-60
2021/11/03 03:27:01;;;;;;;;;11.75;11.00;;;;;9.56;94.02;99426.03;5059781;28;45224;-59
2021/11/03 03:29:26;;;;;;;;;14.50;9.50;;;;;9.52;94.26;99424.50;5059580;28;45263;-59
2021/11/03 03:31:52;;;;;;;;;13.00;10.50;;;;;9.51;93.53;99423.66;5060493;28;45157;-59
2021/11/03 03:34:21;;;;;;;;;11.75;11.75;;;;;9.52;93.97;99425.34;5062352;28;45228;-59
2021/11/03 03:36:47;;;;;;;;;17.75;12.00;;;;;9.48;95.20;99434.16;5049899;28;46625;-59
2021/11/03 03:39:14;;;;;;;;;8.75;7.25;;;;;9.45;94.35;99436.91;5060476;28;45751;-59
2021/11/03 03:41:41;;;;;;;;;9.75;7.75;;;;;9.48;94.27;99439.34;5060699;28;45398;-59
2021/11/03 03:44:07;;;;;;;;;12.00;10.75;;;;;9.50;94.79;99447.91;5060643;28;45500;-60
2021/11/03 03:46:33;;;;;;;;;12.50;10.25;;;;;9.51;94.27;99443.56;5060196;28;47154;-60
2021/11/03 03:48:59;;;;;;;;;13.25;11.75;;;;;9.49;93.80;99438.44;5059768;28;45247;-60
2021/11/03 03:51:24;;;;;;;;;12.00;9.75;;;;;9.49;94.86;99435.84;5060447;28;45704;-61
2021/11/03 03:53:51;;;;;;;;;15.25;11.00;;;;;9.48;94.41;99444.53;5060178;28;45210;-60
2021/11/03 03:56:17;;;;;;;;;17.50;12.00;;;;;9.46;94.53;99446.34;5062180;28;45360;-59
2021/11/03 03:58:44;;;;;;;;;14.50;12.50;;;;;9.45;93.74;99455.88;5052230;28;45383;-61
2021/11/03 04:01:14;;;;;;;;;18.00;13.50;;;;;9.45;93.62;99457.63;5053175;28;45533;-61
2021/11/03 04:03:40;;;;;;;;;16.75;12.75;;;;;9.48;94.68;99448.88;5046205;28;45351;-61
2021/11/03 04:06:05;;;;;;;;;12.75;11.00;;;;;9.52;93.88;99456.44;5059708;28;45483;-61
2021/11/03 04:08:31;;;;;;;;;11.00;11.00;;;;;9.51;93.90;99456.53;5059867;28;45310;-61
2021/11/03 04:10:57;;;;;;;;;17.50;12.00;;;;;9.51;94.20;99459.13;5059904;28;45299;-60
2021/11/03 04:13:23;;;;;;;;;18.75;11.25;;;;;9.52;93.84;99472.00;5059772;28;45342;-60
2021/11/03 04:15:48;;;;;;;;;14.00;13.75;;;;;9.50;93.86;99455.69;5059564;28;46441;-60
2021/11/03 04:18:14;;;;;;;;;16.00;13.25;;;;;9.50;94.60;99465.22;5059913;28;45334;-61
2021/11/03 04:20:40;;;;;;;;;14.25;9.25;;;;;9.44;94.55;99472.34;5060024;28;45509;-60
2021/11/03 04:23:05;;;;;;;;;19.50;14.75;;;;;9.36;94.52;99477.00;5054419;28;45450;-61
2021/11/03 04:25:31;;;;;;;;;20.75;16.25;;;;;9.30;95.42;99476.44;5051742;28;46173;-60
2021/11/03 04:27:58;;;;;;;;;21.25;17.75;;;;;9.22;96.31;99473.34;5059925;28;45319;-60
2021/11/03 04:30:24;;;;;;;;;22.25;16.50;;;;;9.18;96.96;99475.19;5059368;28;45509;-61
2021/11/03 04:32:50;;;;;;;;;19.75;16.75;;;;;9.16;95.82;99487.38;5059842;28;45562;-60
2021/11/03 04:35:15;;;;;;;;;21.75;18.50;;;;;9.14;96.07;99491.78;5059290;28;46256;-59
2021/11/03 04:37:41;;;;;;;;;31.75;23.00;;;;;9.13;96.46;99487.50;5041582;28;45418;-59
2021/11/03 04:40:11;;;;;;;;;21.25;19.50;;;;;9.18;95.85;99482.97;5053499;28;45267;-60
2021/11/03 04:42:37;;;;;;;;;23.75;17.75;;;;;9.25;96.90;99491.34;5059669;28;45284;-60
2021/11/03 04:45:04;;;;;;;;;25.75;22.75;;;;;9.23;96.48;99481.06;5058903;28;46278;-61
2021/11/03 04:47:29;;;;;;;;;27.50;22.25;;;;;9.17;96.04;99478.69;5059398;28;45236;-60
2021/11/03 04:49:57;;;;;;;;;26.25;22.50;;;;;9.28;96.07;99497.25;5058872;28;45280;-60
2021/11/03 04:52:23;;;;;;;;;32.75;23.25;;;;;9.26;95.40;99491.28;5059128;28;45445;-60
2021/11/03 04:54:48;;;;;;;;;26.50;21.75;;;;;9.29;95.37;99492.91;5058419;28;46131;-59
2021/11/03 04:57:18;;;;;;;;;24.00;22.25;;;;;9.27;95.94;99487.78;5058212;28;45513;-59
2021/11/03 04:59:45;;;;;;;;;26.00;22.00;;;;;9.27;95.84;99500.75;5059364;28;45371;-59
2021/11/03 05:02:11;;;;;;;;;27.50;25.75;;;;;9.24;95.61;99494.84;5059683;28;45420;-59
2021/11/03 05:04:37;;;;;;;;;28.75;25.25;;;;;9.26;95.57;99495.63;5061160;28;46263;-59
2021/11/03 05:07:03;;;;;;;;;25.25;19.25;;;;;9.25;95.95;99504.31;5062785;28;45333;-59
2021/11/03 05:09:28;;;;;;;;;25.75;21.75;;;;;9.23;95.89;99501.78;5062747;28;45355;-59
2021/11/03 05:11:54;;;;;;;;;32.00;24.75;;;;;9.23;95.94;99503.53;5062890;28;45387;-59
2021/11/03 05:14:19;;;;;;;;;25.50;22.50;;;;;9.23;95.79;99499.19;5062695;28;46005;-59
2021/11/03 05:16:44;;;;;;;;;34.50;25.00;;;;;9.25;95.08;99499.97;5062550;28;45473;-59
2021/11/03 05:19:19;;;;;;;;;26.50;22.50;;;;;9.24;96.12;99508.66;5062433;28;45316;-59
2021/11/03 05:21:45;;;;;;;;;35.00;23.75;;;;;9.25;96.23;99509.50;5062357;28;45375;-59
2021/11/03 05:24:10;;;;;;;;;26.00;24.50;;;;;9.27;96.26;99508.53;5053800;28;45935;-59
2021/11/03 05:26:35;;;;;;;;;30.75;26.75;;;;;9.27;96.48;99503.34;5062470;28;45437;-59
2021/11/03 05:29:02;;;;;;;;;26.25;23.75;;;;;9.34;96.50;99502.16;5062487;28;45409;-60
2021/11/03 05:31:27;;;;;;;;;28.50;21.75;;;;;9.35;95.81;99497.81;5061649;28;45450;-60
2021/11/03 05:33:53;;;;;;;;;30.50;26.50;;;;;9.40;96.28;99501.06;5053905;28;46973;-59
2021/11/03 05:36:23;;;;;;;;;26.25;23.50;;;;;9.43;96.13;99506.13;5054155;28;45255;-59
2021/11/03 05:38:48;;;;;;;;;28.00;19.00;;;;;9.45;96.46;99507.75;5059072;28;45477;-59
2021/11/03 05:41:14;;;;;;;;;27.50;23.50;;;;;9.50;96.36;99514.50;5062177;28;45387;-59
2021/11/03 05:43:40;;;;;;;;;30.00;24.25;;;;;9.48;96.45;99504.19;5061787;28;45334;-59
2021/11/03 05:46:06;;;;;;;;;28.75;22.25;;;;;9.46;96.04;99513.78;5062055;28;45187;-59
2021/11/03 05:48:33;;;;;;;;;31.50;24.75;;;;;9.44;96.70;99515.59;5061947;28;45508;-59
2021/11/03 05:50:59;;;;;;;;;28.00;22.00;;;;;9.39;96.87;99509.75;5061938;28;45418;-58
2021/11/03 05:53:24;;;;;;;;;28.00;24.75;;;;;9.38;96.23;99511.50;5060507;28;46114;-58
2021/11/03 05:55:50;;;;;;;;;28.00;23.75;;;;;9.41;97.31;99516.56;5060598;28;45477;-59
2021/11/03 05:58:15;;;;;;;;;25.50;20.00;;;;;9.43;96.93;99509.56;5060217;28;45408;-59
2021/11/03 06:00:41;;;;;;;;;26.75;24.00;;;;;9.45;97.77;99512.94;5059985;28;45512;-59
2021/11/03 06:03:06;;;;;;;;;29.00;20.75;;;;;9.51;97.70;99522.19;5059173;28;46050;-60
2021/11/03 06:05:32;;;;;;;;;35.75;29.00;;;;;9.51;96.67;99522.19;5050608;28;45356;-59
2021/11/03 06:08:01;;;;;;;;;33.00;25.75;;;;;9.53;97.64;99522.13;5060383;28;45530;-67
2021/11/03 06:10:39;;;;;;;;;27.75;23.50;;;;;9.56;97.59;99522.00;5060497;28;45291;-59
2021/11/03 06:13:05;;;;;;;;;28.00;20.50;;;;;9.58;96.58;99523.59;5060649;28;46199;-58
2021/11/03 06:15:33;;;;;;;;;27.00;23.50;;;;;9.57;97.03;99528.88;5060326;28;45450;-58
2021/11/03 06:17:59;;;;;;;;;24.50;22.25;;;;;9.53;96.86;99528.16;5057974;28;45702;-58
2021/11/03 06:20:26;;;;;;;;;21.50;18.00;;;;;9.55;96.65;99539.31;5059383;28;45410;-60
2021/11/03 06:22:52;;;;;;;;;29.50;23.75;;;;;9.54;97.23;99529.00;5056427;28;45384;-59
2021/11/03 06:25:18;;;;;;;;;32.25;25.25;;;;;9.53;97.22;99529.91;5051749;28;45556;-59
2021/11/03 06:27:45;;;;;;;;;27.00;23.00;;;;;9.56;97.17;99537.56;5059952;28;45492;-59
2021/11/03 06:30:15;;;;;;;;;26.50;22.25;;;;;9.56;96.58;99540.16;5060105;28;45529;-59
2021/11/03 06:32:41;;;;;;;;;29.50;23.50;;;;;9.56;96.95;99541.00;5060126;28;45252;-59
2021/11/03 06:35:07;;;;;;;;;24.50;19.25;;;;;9.58;96.97;99546.13;5056834;28;45452;-59
2021/11/03 06:37:33;;;;;;;;;28.00;24.50;;;;;9.59;96.46;99555.56;5047330;28;45287;-61
2021/11/03 06:39:59;;;;;;;;;29.75;23.75;;;;;9.57;95.98;99552.22;5059973;28;45509;-59
2021/11/03 06:42:24;;;;;;;;;30.50;27.25;;;;;9.56;96.53;99555.72;5059806;28;46288;-58
2021/11/03 06:44:50;;;;;;;;;27.25;22.25;;;;;9.53;96.48;99566.22;5059828;28;45220;-59
2021/11/03 06:47:18;;;;;;;;;30.25;22.75;;;;;9.52;95.79;99559.34;5060228;28;45360;-58
2021/11/03 06:49:43;;;;;;;;;22.75;20.25;;;;;9.54;96.31;99555.78;5061521;28;45389;-59
2021/11/03 06:52:09;;;;;;;;;28.50;22.75;;;;;9.57;96.32;99555.66;5018796;28;1160500;-59
2021/11/03 06:54:34;;;;;;;;;23.75;19.75;;;;;9.61;96.70;99566.72;5060781;28;45350;-58
2021/11/03 06:57:02;;;;;;;;;27.50;25.00;;;;;9.63;96.46;99580.50;5061209;28;45255;-58
2021/11/03 06:59:28;;;;;;;;;30.25;28.75;;;;;9.61;96.21;99575.38;5058668;28;45430;-58
2021/11/03 07:01:53;;;;;;;;;33.00;27.50;;;;;9.62;95.79;99582.25;5061042;28;45333;-58
2021/11/03 07:04:19;;;;;;;;;28.75;21.00;;;;;9.63;95.46;99593.47;5058618;28;45326;-58
2021/11/03 07:06:44;;;;;;;;;28.75;23.50;;;;;9.59;95.66;99595.31;5056272;28;45378;-58
2021/11/03 07:09:10;;;;;;;;;28.75;21.50;;;;;9.60;95.91;99596.16;5058959;28;45264;-58
2021/11/03 07:11:35;;;;;;;;;27.00;23.25;;;;;9.64;96.24;99600.34;5058989;28;46247;-58
2021/11/03 07:14:01;;;;;;;;;23.25;20.50;;;;;9.63;95.56;99602.09;5060285;28;45299;-58
2021/11/03 07:16:27;;;;;;;;;23.75;21.00;;;;;9.62;95.57;99609.94;5060293;28;45590;-58
2021/11/03 07:18:52;;;;;;;;;24.75;19.75;;;;;9.58;95.68;99609.19;5060202;28;45420;-58
2021/11/03 07:21:18;;;;;;;;;17.25;16.00;;;;;9.53;94.89;99613.75;5060489;28;45330;-59
2021/11/03 07:23:44;;;;;;;;;23.50;22.25;;;;;9.48;95.00;99614.84;5050950;28;45399;-59
2021/11/03 07:26:11;;;;;;;;;17.50;16.00;;;;;9.41;95.10;99624.59;5060288;28;45238;-61
2021/11/03 07:28:36;;;;;;;;;25.75;20.25;;;;;9.35;94.93;99624.88;5060450;28;45216;-59
2021/11/03 07:31:03;;;;;;;;;24.25;18.75;;;;;9.31;94.74;99629.34;5060217;28;45367;-59
2021/11/03 07:33:29;;;;;;;;;22.75;18.50;;;;;9.25;95.28;99626.16;5060296;28;45795;-61
2021/11/03 07:35:54;;;;;;;;;20.75;18.75;;;;;9.21;95.17;99625.44;5055718;28;45371;-59
2021/11/03 07:38:20;;;;;;;;;16.00;14.00;;;;;9.15;94.78;99633.44;5053690;28;45742;-59
2021/11/03 07:40:52;;;;;;;;;17.75;17.50;;;;;9.11;95.21;99639.66;5060588;28;46106;-59
2021/11/03 07:43:19;;;;;;;;;22.50;19.50;;;;;9.10;95.55;99649.16;5060123;28;45151;-60
2021/11/03 07:45:47;;;;;;;;;26.50;20.50;;;;;9.12;95.35;99651.69;5060397;28;45358;-59
2021/11/03 07:48:13;;;;;;;;;24.75;18.50;;;;;9.17;95.48;99651.50;5059803;28;45547;-59
2021/11/03 07:50:44;;;;;;;;;26.00;20.50;;;;;9.19;95.54;99657.47;5059818;28;46139;-60
2021/11/03 07:53:10;;;;;;;;;25.00;18.25;;;;;9.16;95.14;99655.84;5059471;28;45184;-60
2021/11/03 07:55:40;;;;;;;;;22.50;19.00;;;;;9.15;95.70;99655.00;5060198;28;45312;-61
2021/11/03 07:58:05;;;;;;;;;28.25;23.75;;;;;9.20;95.51;99662.59;5059672;28;45255;-61
2021/11/03 08:00:35;;;;;;;;;22.75;19.00;;;;;9.22;95.44;99663.41;5059830;28;46143;-60
2021/11/03 08:03:02;;;;;;;;;26.75;19.50;;;;;9.24;95.56;99669.38;5059284;28;46043;-61
2021/11/03 08:05:28;;;;;;;;;30.00;26.50;;;;;9.27;95.26;99676.19;5060192;28;45311;-60
2021/11/03 08:07:55;;;;;;;;;20.00;20.00;;;;;9.25;94.78;99671.06;5059464;28;45572;-60
2021/11/03 08:10:23;;;;;;;;;26.75;18.00;;;;;9.20;95.03;99677.31;5052243;28;47032;-60
2021/11/03 08:12:51;;;;;;;;;21.25;17.00;;;;;9.27;94.13;99692.59;5059376;28;45266;-60
2021/11/03 08:15:16;;;;;;;;;22.25;19.25;;;;;9.25;93.68;99684.03;5059883;28;45401;-59
2021/11/03 08:17:42;;;;;;;;;27.25;22.00;;;;;9.28;94.24;99694.28;5059378;28;45461;-59
2021/11/03 08:20:11;;;;;;;;;20.00;17.00;;;;;9.35;94.35;99697.47;5059513;28;46140;-58
2021/11/03 08:22:37;;;;;;;;;19.50;18.25;;;;;9.44;94.31;99694.53;5058959;28;45173;-59
2021/11/03 08:25:03;;;;;;;;;20.25;17.75;;;;;9.54;93.47;99693.25;5052561;28;45230;-57
2021/11/03 08:27:28;;;;;;;;;24.00;19.00;;;;;9.60;92.42;99700.75;5059638;28;45560;-59
2021/11/03 08:29:53;;;;;;;;;22.00;18.00;;;;;9.64;93.32;99712.72;5059662;28;45320;-58
2021/11/03 08:32:27;;;;;;;;;18.25;13.00;;;;;9.67;91.49;99707.41;5059420;28;45265;-59
2021/11/03 08:34:54;;;;;;;;;18.00;14.25;;;;;9.68;91.72;99716.88;5059454;28;45226;-58
2021/11/03 08:37:24;;;;;;;;;26.50;21.75;;;;;9.67;92.05;99714.34;5049293;28;45397;-60
2021/11/03 08:39:52;;;;;;;;;21.25;19.25;;;;;9.72;92.35;99715.00;5059558;28;46351;-58
2021/11/03 08:42:19;;;;;;;;;25.25;18.75;;;;;9.77;91.44;99723.44;5059527;28;45424;-59
2021/11/03 08:44:44;;;;;;;;;22.75;20.50;;;;;9.72;91.18;99727.97;5059582;28;45263;-58
2021/11/03 08:47:11;;;;;;;;;17.25;14.75;;;;;9.67;89.92;99719.53;5059567;28;45589;-64
2021/11/03 08:49:37;;;;;;;;;27.25;23.00;;;;;9.72;91.70;99728.81;5059130;28;46338;-60
2021/11/03 08:52:04;;;;;;;;;23.00;20.50;;;;;9.82;91.30;99729.31;5059123;28;45903;-61
2021/11/03 08:54:37;;;;;;;;;24.25;20.50;;;;;9.99;91.14;99733.78;5059288;28;45472;-60
2021/11/03 08:57:02;;;;;;;;;21.25;19.75;;;;;10.13;91.10;99722.84;5057826;28;45473;-62
2021/11/03 08:59:28;;;;;;;;;20.25;18.00;;;;;10.30;91.47;99736.84;5057706;28;45333;-60
2021/11/03 09:01:54;;;;;;;;;14.25;13.25;;;;;10.36;89.47;99721.00;5057840;28;45390;-59
2021/11/03 09:04:19;;;;;;;;;25.00;19.50;;;;;10.52;89.86;99733.31;5057495;28;45509;-59
2021/11/03 09:06:45;;;;;;;;;23.75;20.50;;;;;10.66;90.56;99736.19;5058544;28;45580;-61
2021/11/03 09:09:10;;;;;;;;;21.50;20.25;;;;;10.78;88.21;99743.41;5058664;28;46000;-63
2021/11/03 09:11:35;;;;;;;;;18.25;16.00;;;;;10.79;86.56;99747.69;5053686;28;45280;-61
2021/11/03 09:14:01;;;;;;;;;31.25;18.25;;;;;10.73;85.81;99742.78;5051946;28;45735;-62
2021/11/03 09:16:28;;;;;;;;;24.25;20.75;;;;;10.80;86.82;99741.59;5058350;28;45293;-62
2021/11/03 09:18:53;;;;;;;;;20.25;17.50;;;;;10.92;86.84;99755.81;5058451;28;45410;-62
2021/11/03 09:21:21;;;;;;;;;25.00;19.25;;;;;11.05;87.66;99761.31;5058424;28;45212;-62
2021/11/03 09:23:46;;;;;;;;;25.00;19.25;;;;;11.13;83.82;99754.84;5050344;28;45856;-62
2021/11/03 09:26:14;;;;;;;;;27.75;18.00;;;;;11.15;84.63;99760.81;5057869;28;45343;-62
2021/11/03 09:28:40;;;;;;;;;20.50;18.00;;;;;11.18;85.17;99771.06;5058673;28;46320;-62
2021/11/03 09:31:08;;;;;;;;;20.50;15.75;;;;;11.09;83.13;99763.69;5058452;28;45173;-61
2021/11/03 09:33:36;;;;;;;;;16.75;16.00;;;;;11.31;85.85;99775.72;5058772;28;45347;-59
2021/11/03 09:36:07;;;;;;;;;25.25;17.25;;;;;11.92;85.97;99771.09;5052449;28;45500;-59
2021/11/03 09:38:34;;;;;;;;;19.00;17.50;;;;;12.39;83.04;99771.34;5048776;28;45315;-62
2021/11/03 09:41:01;;;;;;;;;19.50;14.50;;;;;12.50;81.93;99778.66;5046310;28;45749;-62
2021/11/03 09:43:38;;;;;;;;;19.25;15.00;;;;;12.44;80.92;99784.19;5044156;28;45462;-62
2021/11/03 09:46:19;;;;;;;;;20.75;18.25;;;;;12.41;82.65;99781.69;5056369;28;45372;-62
2021/11/03 09:48:51;;;;;;;;;25.75;18.00;;;;;12.48;82.76;99791.75;5053611;28;46162;-62
2021/11/03 09:51:24;;;;;;;;;25.75;21.25;;;;;12.66;82.45;99786.53;5055029;28;45734;-62
2021/11/03 09:53:57;;;;;;;;;19.50;19.00;;;;;12.75;82.47;99784.28;5044116;28;45452;-61
2021/11/03 09:56:37;;;;;;;;;19.75;18.50;;;;;12.72;81.16;99791.41;5053152;28;45469;-62
2021/11/03 09:59:20;;;;;;;;;20.25;17.50;;;;;12.72;82.08;99786.22;5054918;28;45320;-61
2021/11/03 10:01:57;;;;;;;;;23.50;22.25;;;;;12.66;78.60;99789.13;5053297;28;45245;-61
2021/11/03 10:04:57;;;;;;;;;25.25;20.00;;;;;12.56;76.10;99795.72;5049662;28;45470;-61
2021/11/03 10:07:30;;;;;;;;;26.75;20.25;;;;;12.48;79.77;99796.13;5040328;28;45339;-62
2021/11/03 10:09:56;;;;;;;;;27.50;20.00;;;;;12.59;80.13;99804.22;5054482;28;46678;-60
2021/11/03 10:12:23;;;;;;;;;23.25;16.00;;;;;12.87;78.78;99795.00;5048838;28;45574;-60
2021/11/03 10:14:48;;;;;;;;;20.00;17.00;;;;;13.56;77.60;99797.41;5049062;28;45272;-60
2021/11/03 10:17:19;;;;;;;;;18.75;17.00;;;;;13.78;74.26;99797.91;5051234;28;45341;-61
2021/11/03 10:19:45;;;;;;;;;26.00;20.50;;;;;14.24;77.89;99796.19;5054172;28;45487;-61
2021/11/03 10:22:19;;;;;;;;;11.50;5.75;;;;;14.86;70.61;99791.66;5049508;28;45306;-62
2021/11/03 10:25:16;;;;;;;;;16.00;13.50;;;;;14.95;66.75;99792.03;5048191;28;45430;-61
2021/11/03 10:27:47;;;;;;;;;12.00;11.25;;;;;14.32;70.55;99793.09;5047923;28;45403;-62
2021/11/03 10:30:28;;;;;;;;;15.25;12.00;;;;;14.17;70.29;99797.44;5051830;28;46260;-61
2021/11/03 10:32:55;;;;;;;;;12.25;11.50;;;;;14.13;72.09;99805.53;5052968;28;45363;-61
2021/11/03 10:35:39;;;;;;;;;13.25;11.50;;;;;14.32;71.07;99801.78;5052290;28;45433;-62
2021/11/03 10:38:19;;;;;;;;;17.75;15.50;;;;;14.45;72.80;99807.19;5065171;28;45239;-62
2021/11/03 10:41:19;;;;;;;;;17.25;13.50;;;;;15.11;69.08;99813.72;5048990;28;46343;-62
2021/11/03 10:43:58;;;;;;;;;13.75;12.00;;;;;14.84;68.19;99811.00;5034884;28;45484;-62
2021/11/03 10:46:29;;;;;;;;;10.75;10.75;;;;;14.67;72.89;99817.22;5060926;28;45204;-61
2021/11/03 10:49:25;;;;;;;;;10.50;10.50;;;;;14.68;74.25;99824.16;5061134;28;45299;-61
2021/11/03 10:52:14;;;;;;;;;16.00;14.50;;;;;14.44;71.07;99818.56;5058989;28;45644;-61
2021/11/03 10:55:11;;;;;;;;;16.25;14.50;;;;;14.83;70.69;99819.78;5053404;28;45418;-63
2021/11/03 10:57:41;;;;;;;;;14.00;12.00;;;;;17.55;73.76;99821.22;5042066;28;45477;-63
2021/11/03 11:00:33;;;;;;;;;19.00;12.50;;;;;18.29;64.04;99814.13;5070632;28;45503;-62
2021/11/03 11:03:04;;;;;;;;;14.50;13.75;;;;;17.84;64.09;99820.03;5058814;28;46320;-61
2021/11/03 11:05:34;;;;;;;;;8.00;7.50;;;;;17.34;63.20;99808.66;5060089;28;45155;-63
2021/11/03 11:08:18;;;;;;;;;13.25;11.75;;;;;18.84;54.72;99814.34;5059623;28;45376;-62
2021/11/03 11:11:06;;;;;;;;;13.25;12.00;;;;;18.46;60.83;99809.31;5058994;28;45322;-62
2021/11/03 11:13:36;;;;;;;;;11.00;8.75;;;;;17.62;62.18;99810.19;5060500;28;46069;-63
2021/11/03 11:16:25;;;;;;;;;10.50;8.00;;;;;17.20;57.27;99806.16;5057817;28;45696;-63
2021/11/03 11:18:57;;;;;;;;;8.50;8.25;;;;;17.12;58.23;99805.84;5060261;28;45196;-62
2021/11/03 11:21:47;;;;;;;;;8.75;8.25;;;;;16.53;61.62;99805.47;5059662;28;45495;-62
2021/11/03 11:24:24;;;;;;;;;11.50;9.00;;;;;16.15;59.87;99805.38;5053995;28;45335;-63
2021/11/03 11:27:01;;;;;;;;;9.50;9.50;;;;;15.55;60.91;99825.84;5060024;28;45858;-62
2021/11/03 11:30:01;;;;;;;;;11.25;11.00;;;;;14.91;61.13;99828.84;5060607;28;45425;-62
2021/11/03 11:32:27;;;;;;;;;8.00;8.00;;;;;14.90;61.90;99832.41;5062988;28;45241;-62